sensor_id;sensor_type;location;lat;lon;timestamp;pressure;altitude;pressure_sealevel;temperature;humidity
11268;BME280;49397;47.474;9.416;2022-10-16T00:00:44;95420.69;;;13.69;97.83
11268;BME280;49397;47.474;9.416;2022-10-16T00:03:10;95420.34;;;13.71;96.92
11268;BME280;49397;47.474;9.416;2022-10-16T00:05:43;95423.56;;;13.73;98.01
11268;BME280;49397;47.474;9.416;2022-10-16T00:08:11;95416.03;;;13.70;97.12
11268;BME280;49397;47.474;9.416;2022-10-16T00:10:36;95416.03;;;13.70;97.95
11268;BME280;49397;47.474;9.416;2022-10-16T00:13:03;95413.44;;;13.74;96.93
11268;BME280;49397;47.474;9.416;2022-10-16T00:15:29;95420.31;;;13.80;97.59
11268;BME280;49397;47.474;9.416;2022-10-16T00:17:55;95422.84;;;13.85;96.60
11268;BME280;49397;47.474;9.416;2022-10-16T00:20:20;95424.75;;;13.84;96.74
11268;BME280;49397;47.474;9.416;2022-10-16T00:22:46;95423.28;;;13.87;95.76
11268;BME280;49397;47.474;9.416;2022-10-16T00:25:11;95423.03;;;13.80;97.22
11268;BME280;49397;47.474;9.416;2022-10-16T00:27:37;95419.50;;;13.79;97.16
11268;BME280;49397;47.474;9.416;2022-10-16T00:30:03;95415.84;;;13.75;97.21
11268;BME280;49397;47.474;9.416;2022-10-16T00:32:28;95422.41;;;13.74;97.69
11268;BME280;49397;47.474;9.416;2022-10-16T00:34:54;95421.50;;;13.70;97.82
11268;BME280;49397;47.474;9.416;2022-10-16T00:37:20;95422.59;;;13.69;98.03
11268;BME280;49397;47.474;9.416;2022-10-16T00:39:46;95432.44;;;13.61;99.54
11268;BME280;49397;47.474;9.416;2022-10-16T00:42:16;95433.56;;;13.60;99.15
11268;BME280;49397;47.474;9.416;2022-10-16T00:47:32;95426.38;;;13.56;100.00
11268;BME280;49397;47.474;9.416;2022-10-16T00:50:11;95425.06;;;13.62;99.61
11268;BME280;49397;47.474;9.416;2022-10-16T00:52:42;95411.94;;;13.55;98.61
11268;BME280;49397;47.474;9.416;2022-10-16T00:55:10;95414.63;;;13.64;100.00
11268;BME280;49397;47.474;9.416;2022-10-16T00:57:37;95414.94;;;13.62;100.00
11268;BME280;49397;47.474;9.416;2022-10-16T01:00:08;95408.03;;;13.65;99.88
11268;BME280;49397;47.474;9.416;2022-10-16T01:02:34;95418.28;;;13.68;100.00
11268;BME280;49397;47.474;9.416;2022-10-16T01:04:59;95417.44;;;13.76;98.48
11268;BME280;49397;47.474;9.416;2022-10-16T01:07:50;95416.78;;;13.79;99.75
11268;BME280;49397;47.474;9.416;2022-10-16T01:13:06;95417.91;;;13.78;99.33
11268;BME280;49397;47.474;9.416;2022-10-16T01:15:52;95418.97;;;13.86;98.11
11268;BME280;49397;47.474;9.416;2022-10-16T01:18:33;95411.72;;;13.90;96.85
11268;BME280;49397;47.474;9.416;2022-10-16T01:21:07;95414.00;;;13.88;97.63
11268;BME280;49397;47.474;9.416;2022-10-16T01:23:49;95418.50;;;13.84;98.70
11268;BME280;49397;47.474;9.416;2022-10-16T01:29:20;95411.84;;;13.93;95.61
11268;BME280;49397;47.474;9.416;2022-10-16T01:31:55;95402.75;;;13.89;96.07
11268;BME280;49397;47.474;9.416;2022-10-16T01:34:32;95419.69;;;13.95;97.01
11268;BME280;49397;47.474;9.416;2022-10-16T01:37:12;95415.72;;;13.92;96.11
11268;BME280;49397;47.474;9.416;2022-10-16T01:39:42;95411.72;;;13.90;96.12
11268;BME280;49397;47.474;9.416;2022-10-16T01:42:36;95421.97;;;13.93;96.18
11268;BME280;49397;47.474;9.416;2022-10-16T01:45:05;95429.94;;;13.98;95.83
11268;BME280;49397;47.474;9.416;2022-10-16T01:47:33;95433.34;;;13.95;95.37
11268;BME280;49397;47.474;9.416;2022-10-16T01:50:02;95429.63;;;13.99;95.66
11268;BME280;49397;47.474;9.416;2022-10-16T01:52:32;95434.97;;;13.96;95.50
11268;BME280;49397;47.474;9.416;2022-10-16T01:55:00;95436.41;;;13.93;95.75
11268;BME280;49397;47.474;9.416;2022-10-16T01:57:28;95413.53;;;13.86;96.07
11268;BME280;49397;47.474;9.416;2022-10-16T01:59:58;95430.47;;;13.91;94.53
11268;BME280;49397;47.474;9.416;2022-10-16T02:02:28;95439.84;;;14.02;94.26
11268;BME280;49397;47.474;9.416;2022-10-16T02:04:58;95438.28;;;14.01;94.08
11268;BME280;49397;47.474;9.416;2022-10-16T02:07:27;95433.81;;;13.97;94.29
11268;BME280;49397;47.474;9.416;2022-10-16T02:09:53;95433.97;;;14.00;94.19
11268;BME280;49397;47.474;9.416;2022-10-16T02:12:25;95431.91;;;13.97;94.87
11268;BME280;49397;47.474;9.416;2022-10-16T02:14:52;95433.16;;;14.00;95.84
11268;BME280;49397;47.474;9.416;2022-10-16T02:17:19;95442.13;;;14.00;95.37
11268;BME280;49397;47.474;9.416;2022-10-16T02:19:47;95444.88;;;14.00;94.85
11268;BME280;49397;47.474;9.416;2022-10-16T02:22:30;95445.31;;;14.02;96.64
11268;BME280;49397;47.474;9.416;2022-10-16T02:25:01;95445.31;;;14.02;94.34
11268;BME280;49397;47.474;9.416;2022-10-16T02:27:44;95439.22;;;14.05;93.81
11268;BME280;49397;47.474;9.416;2022-10-16T02:30:19;95432.66;;;13.98;95.31
11268;BME280;49397;47.474;9.416;2022-10-16T02:32:48;95440.06;;;13.97;96.17
11268;BME280;49397;47.474;9.416;2022-10-16T02:35:18;95430.63;;;13.95;94.22
11268;BME280;49397;47.474;9.416;2022-10-16T02:37:47;95442.25;;;14.04;94.21
11268;BME280;49397;47.474;9.416;2022-10-16T02:40:14;95443.25;;;13.99;93.94
11268;BME280;49397;47.474;9.416;2022-10-16T02:42:40;95438.28;;;14.01;93.80
11268;BME280;49397;47.474;9.416;2022-10-16T02:45:08;95429.94;;;13.98;94.21
11268;BME280;49397;47.474;9.416;2022-10-16T02:47:34;95427.56;;;13.96;93.72
11268;BME280;49397;47.474;9.416;2022-10-16T02:49:59;95416.97;;;13.95;95.30
11268;BME280;49397;47.474;9.416;2022-10-16T02:52:25;95423.16;;;14.04;95.42
11268;BME280;49397;47.474;9.416;2022-10-16T02:54:50;95423.75;;;13.89;93.80
11268;BME280;49397;47.474;9.416;2022-10-16T02:57:16;95417.84;;;13.87;93.48
11268;BME280;49397;47.474;9.416;2022-10-16T02:59:42;95421.03;;;13.89;94.52
11268;BME280;49397;47.474;9.416;2022-10-16T03:02:08;95435.06;;;13.99;93.87
11268;BME280;49397;47.474;9.416;2022-10-16T03:04:34;95440.19;;;14.01;93.72
11268;BME280;49397;47.474;9.416;2022-10-16T03:07:00;95441.84;;;13.93;94.82
11268;BME280;49397;47.474;9.416;2022-10-16T03:09:25;95427.00;;;13.82;94.51
11268;BME280;49397;47.474;9.416;2022-10-16T03:11:51;95426.34;;;13.85;93.98
11268;BME280;49397;47.474;9.416;2022-10-16T03:14:17;95431.22;;;13.80;94.64
11268;BME280;49397;47.474;9.416;2022-10-16T03:16:43;95430.41;;;13.79;94.13
11268;BME280;49397;47.474;9.416;2022-10-16T03:19:08;95434.59;;;13.77;95.23
11268;BME280;49397;47.474;9.416;2022-10-16T03:21:34;95444.03;;;13.79;94.19
11268;BME280;49397;47.474;9.416;2022-10-16T03:23:59;95426.28;;;13.73;93.91
11268;BME280;49397;47.474;9.416;2022-10-16T03:26:25;95436.03;;;13.74;93.59
11268;BME280;49397;47.474;9.416;2022-10-16T03:28:50;95425.81;;;13.71;93.60
11268;BME280;49397;47.474;9.416;2022-10-16T03:31:15;95428.19;;;13.73;94.67
11268;BME280;49397;47.474;9.416;2022-10-16T03:33:41;95417.28;;;13.73;94.30
11268;BME280;49397;47.474;9.416;2022-10-16T03:36:06;95418.09;;;13.73;94.81
11268;BME280;49397;47.474;9.416;2022-10-16T03:38:32;95424.41;;;13.65;95.47
11268;BME280;49397;47.474;9.416;2022-10-16T03:40:58;95423.78;;;13.59;96.39
11268;BME280;49397;47.474;9.416;2022-10-16T03:43:23;95423.72;;;13.68;93.10
11268;BME280;49397;47.474;9.416;2022-10-16T03:45:50;95422.75;;;13.73;93.57
11268;BME280;49397;47.474;9.416;2022-10-16T03:48:17;95420.09;;;13.64;95.48
11268;BME280;49397;47.474;9.416;2022-10-16T03:50:43;95420.34;;;13.71;92.72
11268;BME280;49397;47.474;9.416;2022-10-16T03:53:08;95418.44;;;13.72;90.51
11268;BME280;49397;47.474;9.416;2022-10-16T03:55:34;95432.22;;;13.75;92.64
11268;BME280;49397;47.474;9.416;2022-10-16T03:58:00;95434.50;;;13.64;92.59
11268;BME280;49397;47.474;9.416;2022-10-16T04:00:26;95436.53;;;13.76;91.90
11268;BME280;49397;47.474;9.416;2022-10-16T04:02:51;95442.91;;;13.80;91.55
11268;BME280;49397;47.474;9.416;2022-10-16T04:05:16;95449.69;;;13.74;92.53
11268;BME280;49397;47.474;9.416;2022-10-16T04:07:42;95461.56;;;13.69;92.02
11268;BME280;49397;47.474;9.416;2022-10-16T04:10:08;95464.97;;;13.66;92.74
11268;BME280;49397;47.474;9.416;2022-10-16T04:12:33;95454.94;;;13.50;93.78
11268;BME280;49397;47.474;9.416;2022-10-16T04:14:59;95464.41;;;13.44;94.44
11268;BME280;49397;47.474;9.416;2022-10-16T04:17:24;95473.75;;;13.43;93.83
11268;BME280;49397;47.474;9.416;2022-10-16T04:19:50;95476.94;;;13.45;93.47
11268;BME280;49397;47.474;9.416;2022-10-16T04:22:15;95478.72;;;13.41;93.83
11268;BME280;49397;47.474;9.416;2022-10-16T04:24:41;95488.63;;;13.45;94.46
11268;BME280;49397;47.474;9.416;2022-10-16T04:27:06;95492.66;;;13.39;94.74
11268;BME280;49397;47.474;9.416;2022-10-16T04:29:31;95484.22;;;13.24;95.37
11268;BME280;49397;47.474;9.416;2022-10-16T04:31:57;95500.41;;;13.29;94.46
11268;BME280;49397;47.474;9.416;2022-10-16T04:34:22;95497.97;;;13.36;93.78
11268;BME280;49397;47.474;9.416;2022-10-16T04:36:48;95480.53;;;13.28;92.84
11268;BME280;49397;47.474;9.416;2022-10-16T04:39:15;95488.19;;;13.35;94.23
11268;BME280;49397;47.474;9.416;2022-10-16T04:41:40;95499.25;;;13.30;92.64
11268;BME280;49397;47.474;9.416;2022-10-16T04:44:06;95487.56;;;13.29;92.74
11268;BME280;49397;47.474;9.416;2022-10-16T04:46:31;95489.00;;;13.35;92.74
11268;BME280;49397;47.474;9.416;2022-10-16T04:48:57;95494.94;;;13.29;91.96
11268;BME280;49397;47.474;9.416;2022-10-16T04:51:23;95490.59;;;13.36;90.87
11268;BME280;49397;47.474;9.416;2022-10-16T04:53:48;95483.25;;;13.28;92.88
11268;BME280;49397;47.474;9.416;2022-10-16T04:56:14;95473.16;;;13.29;90.76
11268;BME280;49397;47.474;9.416;2022-10-16T04:58:40;95462.53;;;13.36;89.73
11268;BME280;49397;47.474;9.416;2022-10-16T05:01:06;95485.13;;;13.36;89.78
11268;BME280;49397;47.474;9.416;2022-10-16T05:03:31;95477.59;;;13.42;89.18
11268;BME280;49397;47.474;9.416;2022-10-16T05:05:57;95480.75;;;13.52;88.00
11268;BME280;49397;47.474;9.416;2022-10-16T05:08:22;95481.84;;;13.51;88.31
11268;BME280;49397;47.474;9.416;2022-10-16T05:10:48;95478.19;;;13.56;89.02
11268;BME280;49397;47.474;9.416;2022-10-16T05:13:13;95471.75;;;13.52;87.79
11268;BME280;49397;47.474;9.416;2022-10-16T05:15:39;95478.34;;;13.51;89.68
11268;BME280;49397;47.474;9.416;2022-10-16T05:18:04;95485.22;;;13.57;89.32
11268;BME280;49397;47.474;9.416;2022-10-16T05:20:30;95487.13;;;13.56;88.97
11268;BME280;49397;47.474;9.416;2022-10-16T05:22:55;95499.03;;;13.52;90.66
11268;BME280;49397;47.474;9.416;2022-10-16T05:25:21;95494.25;;;13.40;90.76
11268;BME280;49397;47.474;9.416;2022-10-16T05:27:50;95497.63;;;13.37;92.23
11268;BME280;49397;47.474;9.416;2022-10-16T05:30:16;95508.69;;;13.41;90.77
11268;BME280;49397;47.474;9.416;2022-10-16T05:32:46;95511.38;;;13.49;90.31
11268;BME280;49397;47.474;9.416;2022-10-16T05:35:12;95524.50;;;13.56;89.51
11268;BME280;49397;47.474;9.416;2022-10-16T05:37:37;95522.91;;;13.55;90.52
11268;BME280;49397;47.474;9.416;2022-10-16T05:40:03;95526.59;;;13.50;91.42
11268;BME280;49397;47.474;9.416;2022-10-16T05:42:30;95528.41;;;13.38;92.85
11268;BME280;49397;47.474;9.416;2022-10-16T05:44:55;95535.16;;;13.32;92.56
11268;BME280;49397;47.474;9.416;2022-10-16T05:47:21;95531.97;;;13.30;93.39
11268;BME280;49397;47.474;9.416;2022-10-16T05:49:46;95534.22;;;13.28;93.24
11268;BME280;49397;47.474;9.416;2022-10-16T05:52:12;95536.81;;;13.24;93.51
11268;BME280;49397;47.474;9.416;2022-10-16T05:54:37;95541.44;;;13.24;93.70
11268;BME280;49397;47.474;9.416;2022-10-16T05:57:03;95548.97;;;13.27;92.75
11268;BME280;49397;47.474;9.416;2022-10-16T05:59:31;95545.75;;;13.25;93.23
11268;BME280;49397;47.474;9.416;2022-10-16T06:01:56;95544.97;;;13.24;94.27
11268;BME280;49397;47.474;9.416;2022-10-16T06:04:22;95544.50;;;13.22;94.61
11268;BME280;49397;47.474;9.416;2022-10-16T06:06:47;95537.91;;;13.23;93.72
11268;BME280;49397;47.474;9.416;2022-10-16T06:09:13;95537.75;;;13.28;93.92
11268;BME280;49397;47.474;9.416;2022-10-16T06:11:38;95534.34;;;13.31;94.07
11268;BME280;49397;47.474;9.416;2022-10-16T06:14:04;95536.75;;;13.33;92.67
11268;BME280;49397;47.474;9.416;2022-10-16T06:16:33;95540.31;;;13.25;92.80
11268;BME280;49397;47.474;9.416;2022-10-16T06:18:59;95533.28;;;13.15;94.72
11268;BME280;49397;47.474;9.416;2022-10-16T06:21:27;95518.41;;;12.96;94.96
11268;BME280;49397;47.474;9.416;2022-10-16T06:23:54;95546.56;;;13.17;94.31
11268;BME280;49397;47.474;9.416;2022-10-16T06:26:23;95543.19;;;13.20;92.52
11268;BME280;49397;47.474;9.416;2022-10-16T06:28:49;95548.47;;;13.25;92.15
11268;BME280;49397;47.474;9.416;2022-10-16T06:31:16;95541.75;;;13.22;92.84
11268;BME280;49397;47.474;9.416;2022-10-16T06:33:42;95541.09;;;13.34;89.91
11268;BME280;49397;47.474;9.416;2022-10-16T06:36:13;95555.00;;;13.49;89.83
11268;BME280;49397;47.474;9.416;2022-10-16T06:38:39;95553.06;;;13.50;91.16
11268;BME280;49397;47.474;9.416;2022-10-16T06:41:06;95555.59;;;13.55;89.68
11268;BME280;49397;47.474;9.416;2022-10-16T06:43:32;95568.72;;;13.61;90.38
11268;BME280;49397;47.474;9.416;2022-10-16T06:46:01;95562.28;;;13.66;89.92
11268;BME280;49397;47.474;9.416;2022-10-16T06:48:27;95561.47;;;13.74;90.13
11268;BME280;49397;47.474;9.416;2022-10-16T06:53:28;95567.66;;;13.92;91.68
11268;BME280;49397;47.474;9.416;2022-10-16T06:55:54;95564.75;;;13.97;92.13
11268;BME280;49397;47.474;9.416;2022-10-16T06:58:19;95570.00;;;14.02;90.58
11268;BME280;49397;47.474;9.416;2022-10-16T07:00:45;95579.59;;;14.08;90.72
11268;BME280;49397;47.474;9.416;2022-10-16T07:03:11;95565.81;;;14.04;90.21
11268;BME280;49397;47.474;9.416;2022-10-16T07:05:40;95578.44;;;14.17;92.35
11268;BME280;49397;47.474;9.416;2022-10-16T07:08:06;95588.34;;;14.22;91.98
11268;BME280;49397;47.474;9.416;2022-10-16T07:10:32;95583.75;;;14.14;90.76
11268;BME280;49397;47.474;9.416;2022-10-16T07:12:58;95598.59;;;14.33;90.22
11268;BME280;49397;47.474;9.416;2022-10-16T07:15:24;95597.75;;;14.41;88.33
11268;BME280;49397;47.474;9.416;2022-10-16T07:17:50;95594.94;;;14.50;87.67
11268;BME280;49397;47.474;9.416;2022-10-16T07:20:16;95597.97;;;14.57;87.20
11268;BME280;49397;47.474;9.416;2022-10-16T07:22:41;95602.44;;;14.61;86.97
11268;BME280;49397;47.474;9.416;2022-10-16T07:25:07;95599.84;;;14.65;87.05
11268;BME280;49397;47.474;9.416;2022-10-16T07:27:33;95608.75;;;14.74;85.97
11268;BME280;49397;47.474;9.416;2022-10-16T07:29:59;95614.03;;;14.79;88.55
11268;BME280;49397;47.474;9.416;2022-10-16T07:32:24;95619.63;;;14.82;88.46
11268;BME280;49397;47.474;9.416;2022-10-16T07:34:51;95604.44;;;14.73;88.59
11268;BME280;49397;47.474;9.416;2022-10-16T07:37:17;95625.69;;;14.88;87.21
11268;BME280;49397;47.474;9.416;2022-10-16T07:39:42;95620.09;;;14.84;88.20
11268;BME280;49397;47.474;9.416;2022-10-16T07:42:08;95620.38;;;14.91;86.80
11268;BME280;49397;47.474;9.416;2022-10-16T07:44:33;95623.34;;;14.98;88.15
11268;BME280;49397;47.474;9.416;2022-10-16T07:46:59;95626.81;;;15.07;87.01
11268;BME280;49397;47.474;9.416;2022-10-16T07:49:24;95632.09;;;15.12;86.06
11268;BME280;49397;47.474;9.416;2022-10-16T07:51:50;95632.34;;;15.19;85.11
11268;BME280;49397;47.474;9.416;2022-10-16T07:54:15;95627.41;;;15.13;86.06
11268;BME280;49397;47.474;9.416;2022-10-16T07:56:41;95645.00;;;15.24;85.55
11268;BME280;49397;47.474;9.416;2022-10-16T07:59:06;95637.34;;;15.17;86.35
11268;BME280;49397;47.474;9.416;2022-10-16T08:01:32;95645.00;;;15.24;83.98
11268;BME280;49397;47.474;9.416;2022-10-16T08:03:57;95650.13;;;15.26;85.97
11268;BME280;49397;47.474;9.416;2022-10-16T08:06:23;95655.16;;;15.24;87.72
11268;BME280;49397;47.474;9.416;2022-10-16T08:08:48;95654.06;;;15.16;88.44
11268;BME280;49397;47.474;9.416;2022-10-16T08:11:14;95652.28;;;15.20;89.31
11268;BME280;49397;47.474;9.416;2022-10-16T08:13:41;95646.72;;;15.29;88.51
11268;BME280;49397;47.474;9.416;2022-10-16T08:16:07;95649.13;;;15.30;88.01
11268;BME280;49397;47.474;9.416;2022-10-16T08:18:37;95649.59;;;15.32;87.36
11268;BME280;49397;47.474;9.416;2022-10-16T08:21:04;95654.59;;;15.30;87.39
11268;BME280;49397;47.474;9.416;2022-10-16T08:23:30;95647.75;;;15.45;87.64
11268;BME280;49397;47.474;9.416;2022-10-16T08:25:56;95658.91;;;15.72;86.71
11268;BME280;49397;47.474;9.416;2022-10-16T08:28:26;95657.28;;;16.16;83.92
11268;BME280;49397;47.474;9.416;2022-10-16T08:30:52;95665.63;;;16.31;81.42
11268;BME280;49397;47.474;9.416;2022-10-16T08:33:17;95656.41;;;16.84;80.34
11268;BME280;49397;47.474;9.416;2022-10-16T08:35:50;95666.22;;;17.37;76.27
11268;BME280;49397;47.474;9.416;2022-10-16T08:38:16;95666.50;;;17.59;75.05
11268;BME280;49397;47.474;9.416;2022-10-16T08:40:42;95654.56;;;17.67;74.32
11268;BME280;49397;47.474;9.416;2022-10-16T08:43:14;95667.66;;;17.86;75.00
11268;BME280;49397;47.474;9.416;2022-10-16T08:50:57;95655.97;;;18.48;72.96
11268;BME280;49397;47.474;9.416;2022-10-16T08:53:28;95670.88;;;20.27;76.56
11268;BME280;49397;47.474;9.416;2022-10-16T08:55:55;95665.06;;;20.54;73.08
11268;BME280;49397;47.474;9.416;2022-10-16T08:58:30;95670.78;;;20.91;70.49
11268;BME280;49397;47.474;9.416;2022-10-16T09:00:58;95675.00;;;20.59;69.59
11268;BME280;49397;47.474;9.416;2022-10-16T09:08:51;95683.22;;;21.04;68.99
11268;BME280;49397;47.474;9.416;2022-10-16T09:11:44;95686.06;;;20.40;69.76
11268;BME280;49397;47.474;9.416;2022-10-16T09:22:39;95691.00;;;21.51;68.77
11268;BME280;49397;47.474;9.416;2022-10-16T09:25:16;95696.84;;;21.46;66.89
11268;BME280;49397;47.474;9.416;2022-10-16T09:27:44;95703.38;;;21.34;67.98
11268;BME280;49397;47.474;9.416;2022-10-16T09:30:16;95716.72;;;21.29;67.62
11268;BME280;49397;47.474;9.416;2022-10-16T09:32:44;95718.19;;;21.49;68.64
11268;BME280;49397;47.474;9.416;2022-10-16T09:35:22;95713.50;;;21.79;67.25
11268;BME280;49397;47.474;9.416;2022-10-16T09:37:53;95719.56;;;21.91;66.92
11268;BME280;49397;47.474;9.416;2022-10-16T09:40:35;95719.63;;;21.95;66.10
11268;BME280;49397;47.474;9.416;2022-10-16T09:43:25;95726.84;;;21.47;67.42
11268;BME280;49397;47.474;9.416;2022-10-16T09:46:04;95712.03;;;21.88;65.41
11268;BME280;49397;47.474;9.416;2022-10-16T09:48:39;95725.53;;;21.67;66.32
11268;BME280;49397;47.474;9.416;2022-10-16T09:51:27;95721.47;;;21.58;66.05
11268;BME280;49397;47.474;9.416;2022-10-16T09:53:56;95718.00;;;21.64;66.18
11268;BME280;49397;47.474;9.416;2022-10-16T09:56:30;95718.00;;;21.64;66.28
11268;BME280;49397;47.474;9.416;2022-10-16T09:59:10;95713.72;;;21.67;66.73
11268;BME280;49397;47.474;9.416;2022-10-16T10:01:38;95710.53;;;21.65;65.65
11268;BME280;49397;47.474;9.416;2022-10-16T10:04:05;95714.75;;;22.14;65.28
11268;BME280;49397;47.474;9.416;2022-10-16T10:06:36;95709.41;;;21.99;64.89
11268;BME280;49397;47.474;9.416;2022-10-16T10:09:13;95705.50;;;21.74;65.71
11268;BME280;49397;47.474;9.416;2022-10-16T10:11:48;95719.03;;;21.79;65.64
11268;BME280;49397;47.474;9.416;2022-10-16T10:14:20;95716.44;;;21.93;64.86
11268;BME280;49397;47.474;9.416;2022-10-16T10:16:47;95707.16;;;22.08;65.31
11268;BME280;49397;47.474;9.416;2022-10-16T10:21:41;95720.09;;;22.37;64.42
11268;BME280;49397;47.474;9.416;2022-10-16T10:24:11;95723.25;;;22.35;63.74
11268;BME280;49397;47.474;9.416;2022-10-16T10:26:38;95710.84;;;22.52;64.22
11268;BME280;49397;47.474;9.416;2022-10-16T10:29:34;95710.84;;;22.96;63.73
11268;BME280;49397;47.474;9.416;2022-10-16T10:37:51;95717.16;;;23.43;61.79
11268;BME280;49397;47.474;9.416;2022-10-16T10:43:04;95706.09;;;22.96;61.19
11268;BME280;49397;47.474;9.416;2022-10-16T10:45:46;95700.28;;;22.65;63.09
11268;BME280;49397;47.474;9.416;2022-10-16T10:48:24;95703.75;;;23.02;63.28
11268;BME280;49397;47.474;9.416;2022-10-16T10:59:02;95696.28;;;23.06;62.95
11268;BME280;49397;47.474;9.416;2022-10-16T11:01:54;95692.50;;;22.77;63.85
11268;BME280;49397;47.474;9.416;2022-10-16T11:04:35;95698.84;;;22.81;62.99
11268;BME280;49397;47.474;9.416;2022-10-16T11:07:11;95694.50;;;22.80;64.09
11268;BME280;49397;47.474;9.416;2022-10-16T11:09:43;95693.38;;;22.88;63.50
11268;BME280;49397;47.474;9.416;2022-10-16T11:15:12;95690.13;;;22.76;62.53
11268;BME280;49397;47.474;9.416;2022-10-16T11:17:42;95695.09;;;22.60;62.59
11268;BME280;49397;47.474;9.416;2022-10-16T11:22:51;95683.13;;;22.89;61.47
11268;BME280;49397;47.474;9.416;2022-10-16T11:25:29;95684.34;;;22.95;61.31
11268;BME280;49397;47.474;9.416;2022-10-16T11:28:02;95680.16;;;23.18;61.64
11268;BME280;49397;47.474;9.416;2022-10-16T11:30:39;95677.44;;;23.22;60.73
11268;BME280;49397;47.474;9.416;2022-10-16T11:33:13;95681.84;;;23.26;60.10
11268;BME280;49397;47.474;9.416;2022-10-16T11:47:43;95659.19;;;23.82;59.74
11268;BME280;49397;47.474;9.416;2022-10-16T11:53:45;95657.91;;;23.62;56.03
11268;BME280;49397;47.474;9.416;2022-10-16T11:56:17;95659.44;;;23.52;54.88
11268;BME280;49397;47.474;9.416;2022-10-16T11:59:10;95661.09;;;23.67;55.20
11268;BME280;49397;47.474;9.416;2022-10-16T12:07:09;95648.88;;;23.75;55.14
11268;BME280;49397;47.474;9.416;2022-10-16T12:09:38;95649.13;;;23.49;55.66
11268;BME280;49397;47.474;9.416;2022-10-16T12:12:05;95649.47;;;23.37;55.31
11268;BME280;49397;47.474;9.416;2022-10-16T12:15:00;95649.19;;;23.63;55.56
11268;BME280;49397;47.474;9.416;2022-10-16T12:17:35;95645.97;;;23.51;56.99
11268;BME280;49397;47.474;9.416;2022-10-16T12:20:20;95641.56;;;23.43;56.33
11268;BME280;49397;47.474;9.416;2022-10-16T12:22:54;95639.94;;;23.31;57.37
11268;BME280;49397;47.474;9.416;2022-10-16T12:25:33;95646.97;;;23.22;59.05
11268;BME280;49397;47.474;9.416;2022-10-16T12:28:00;95643.09;;;23.33;56.74
11268;BME280;49397;47.474;9.416;2022-10-16T12:30:29;95647.50;;;23.41;57.81
11268;BME280;49397;47.474;9.416;2022-10-16T12:32:58;95645.41;;;23.24;58.71
11268;BME280;49397;47.474;9.416;2022-10-16T12:35:31;95637.72;;;23.00;60.76
11268;BME280;49397;47.474;9.416;2022-10-16T12:38:06;95639.69;;;22.96;57.36
11268;BME280;49397;47.474;9.416;2022-10-16T12:40:34;95637.75;;;23.04;57.33
11268;BME280;49397;47.474;9.416;2022-10-16T12:43:56;95625.09;;;23.03;58.35
11268;BME280;49397;47.474;9.416;2022-10-16T12:46:02;95632.06;;;22.79;55.90
11268;BME280;49397;47.474;9.416;2022-10-16T12:48:28;95629.91;;;22.62;59.19
11268;BME280;49397;47.474;9.416;2022-10-16T12:50:54;95615.94;;;22.48;59.93
11268;BME280;49397;47.474;9.416;2022-10-16T12:53:20;95632.53;;;22.48;62.02
11268;BME280;49397;47.474;9.416;2022-10-16T13:01:50;95627.13;;;22.18;60.28
11268;BME280;49397;47.474;9.416;2022-10-16T13:07:33;95624.94;;;21.98;59.99
11268;BME280;49397;47.474;9.416;2022-10-16T13:10:22;95621.22;;;21.83;61.23
11268;BME280;49397;47.474;9.416;2022-10-16T13:13:43;95618.78;;;21.78;60.28
11268;BME280;49397;47.474;9.416;2022-10-16T13:16:23;95625.88;;;21.76;60.94
11268;BME280;49397;47.474;9.416;2022-10-16T13:22:24;95627.47;;;21.77;60.58
11268;BME280;49397;47.474;9.416;2022-10-16T13:25:12;95636.25;;;21.86;62.16
11268;BME280;49397;47.474;9.416;2022-10-16T13:28:01;95629.47;;;21.80;63.51
11268;BME280;49397;47.474;9.416;2022-10-16T13:30:39;95621.75;;;21.63;64.75
11268;BME280;49397;47.474;9.416;2022-10-16T13:33:38;95624.75;;;21.51;66.81
11268;BME280;49397;47.474;9.416;2022-10-16T13:36:05;95624.66;;;21.44;67.87
11268;BME280;49397;47.474;9.416;2022-10-16T13:38:33;95617.38;;;21.29;70.81
11268;BME280;49397;47.474;9.416;2022-10-16T13:41:01;95624.03;;;21.24;70.92
11268;BME280;49397;47.474;9.416;2022-10-16T13:43:35;95623.28;;;21.27;70.06
11268;BME280;49397;47.474;9.416;2022-10-16T13:46:05;95621.75;;;21.33;69.52
11268;BME280;49397;47.474;9.416;2022-10-16T13:48:32;95619.44;;;21.39;68.98
11268;BME280;49397;47.474;9.416;2022-10-16T13:51:18;95614.78;;;21.43;67.32
11268;BME280;49397;47.474;9.416;2022-10-16T13:53:45;95614.41;;;21.44;67.94
11268;BME280;49397;47.474;9.416;2022-10-16T13:56:13;95615.53;;;21.40;68.46
11268;BME280;49397;47.474;9.416;2022-10-16T13:58:40;95619.19;;;21.47;67.56
11268;BME280;49397;47.474;9.416;2022-10-16T14:01:17;95617.56;;;21.43;67.92
11268;BME280;49397;47.474;9.416;2022-10-16T14:03:45;95619.06;;;21.37;66.73
11268;BME280;49397;47.474;9.416;2022-10-16T14:06:17;95619.88;;;21.41;68.82
11268;BME280;49397;47.474;9.416;2022-10-16T14:08:46;95621.13;;;21.43;69.63
11268;BME280;49397;47.474;9.416;2022-10-16T14:11:21;95619.56;;;21.46;69.25
11268;BME280;49397;47.474;9.416;2022-10-16T14:13:49;95610.91;;;21.47;69.61
11268;BME280;49397;47.474;9.416;2022-10-16T14:16:18;95618.72;;;21.42;68.26
11268;BME280;49397;47.474;9.416;2022-10-16T14:19:04;95626.16;;;21.38;66.61
11268;BME280;49397;47.474;9.416;2022-10-16T14:21:32;95614.13;;;21.23;67.62
11268;BME280;49397;47.474;9.416;2022-10-16T14:23:58;95627.47;;;21.18;68.21
11268;BME280;49397;47.474;9.416;2022-10-16T14:26:27;95629.28;;;21.07;66.10
11268;BME280;49397;47.474;9.416;2022-10-16T14:29:15;95626.09;;;21.05;67.92
11268;BME280;49397;47.474;9.416;2022-10-16T14:31:42;95628.19;;;20.88;67.80
11268;BME280;49397;47.474;9.416;2022-10-16T14:36:50;95633.31;;;20.86;66.72
11268;BME280;49397;47.474;9.416;2022-10-16T14:39:20;95635.69;;;20.88;66.20
11268;BME280;49397;47.474;9.416;2022-10-16T14:41:48;95634.38;;;20.82;68.81
11268;BME280;49397;47.474;9.416;2022-10-16T14:44:15;95631.16;;;20.76;70.10